sensor_id;sensor_type;location;lat;lon;timestamp;P1;P2;P0
13030;PMS7003;6582;54.644;9.760;2022-07-01T00:00:01;27.0;25.3;
13030;PMS7003;6582;54.644;9.760;2022-07-01T00:05:06;27.7;26.2;
13030;PMS7003;6582;54.644;9.760;2022-07-01T00:10:02;28.1;26.3;
13030;PMS7003;6582;54.644;9.760;2022-07-01T00:15:06;28.0;26.4;
13030;PMS7003;6582;54.644;9.760;2022-07-01T00:20:02;27.8;25.6;
13030;PMS7003;6582;54.644;9.760;2022-07-01T00:25:01;27.6;25.2;
13030;PMS7003;6582;54.644;9.760;2022-07-01T00:30:02;27.3;24.4;
13030;PMS7003;6582;54.644;9.760;2022-07-01T00:35:01;27.5;24.6;
13030;PMS7003;6582;54.644;9.760;2022-07-01T00:40:01;27.6;24.1;
13030;PMS7003;6582;54.644;9.760;2022-07-01T00:45:02;27.2;24.5;
13030;PMS7003;6582;54.644;9.760;2022-07-01T00:50:02;26.8;24.6;
13030;PMS7003;6582;54.644;9.760;2022-07-01T00:55:03;26.2;24.2;
13030;PMS7003;6582;54.644;9.760;2022-07-01T01:00:03;26.0;23.8;
13030;PMS7003;6582;54.644;9.760;2022-07-01T01:05:02;25.4;23.8;
13030;PMS7003;6582;54.644;9.760;2022-07-01T01:10:01;25.6;24.3;
13030;PMS7003;6582;54.644;9.760;2022-07-01T01:15:01;25.6;24.0;
13030;PMS7003;6582;54.644;9.760;2022-07-01T01:20:02;26.2;24.9;
13030;PMS7003;6582;54.644;9.760;2022-07-01T01:25:01;26.0;24.7;
13030;PMS7003;6582;54.644;9.760;2022-07-01T01:30:01;25.9;24.1;
13030;PMS7003;6582;54.644;9.760;2022-07-01T01:35:02;26.4;23.6;
13030;PMS7003;6582;54.644;9.760;2022-07-01T01:40:02;27.1;24.1;
13030;PMS7003;6582;54.644;9.760;2022-07-01T01:45:02;27.0;23.2;
13030;PMS7003;6582;54.644;9.760;2022-07-01T01:50:01;26.0;22.7;
13030;PMS7003;6582;54.644;9.760;2022-07-01T01:55:06;26.2;23.1;
13030;PMS7003;6582;54.644;9.760;2022-07-01T02:00:03;25.2;22.8;
13030;PMS7003;6582;54.644;9.760;2022-07-01T02:05:02;23.7;21.8;
13030;PMS7003;6582;54.644;9.760;2022-07-01T02:10:11;23.8;22.6;
13030;PMS7003;6582;54.644;9.760;2022-07-01T02:15:01;24.7;23.6;
13030;PMS7003;6582;54.644;9.760;2022-07-01T02:20:01;25.5;24.0;
13030;PMS7003;6582;54.644;9.760;2022-07-01T02:25:01;26.2;24.4;
13030;PMS7003;6582;54.644;9.760;2022-07-01T02:30:02;27.5;25.1;
13030;PMS7003;6582;54.644;9.760;2022-07-01T02:35:01;26.9;24.8;
13030;PMS7003;6582;54.644;9.760;2022-07-01T02:40:01;27.7;25.5;
13030;PMS7003;6582;54.644;9.760;2022-07-01T02:45:02;27.6;25.7;
13030;PMS7003;6582;54.644;9.760;2022-07-01T02:50:02;27.3;25.1;
13030;PMS7003;6582;54.644;9.760;2022-07-01T02:55:02;27.1;25.6;
13030;PMS7003;6582;54.644;9.760;2022-07-01T03:00:03;27.0;25.3;
13030;PMS7003;6582;54.644;9.760;2022-07-01T03:05:07;26.4;24.7;
13030;PMS7003;6582;54.644;9.760;2022-07-01T03:15:06;26.9;25.9;
13030;PMS7003;6582;54.644;9.760;2022-07-01T03:20:01;28.0;26.2;
13030;PMS7003;6582;54.644;9.760;2022-07-01T03:25:02;29.0;27.0;
13030;PMS7003;6582;54.644;9.760;2022-07-01T03:30:02;29.2;27.2;
13030;PMS7003;6582;54.644;9.760;2022-07-01T03:35:01;29.4;27.2;
13030;PMS7003;6582;54.644;9.760;2022-07-01T03:40:01;29.9;27.6;
13030;PMS7003;6582;54.644;9.760;2022-07-01T03:45:01;28.5;26.9;
13030;PMS7003;6582;54.644;9.760;2022-07-01T03:50:01;28.8;27.3;
13030;PMS7003;6582;54.644;9.760;2022-07-01T03:55:01;28.7;27.3;
13030;PMS7003;6582;54.644;9.760;2022-07-01T04:00:12;29.2;27.8;
13030;PMS7003;6582;54.644;9.760;2022-07-01T04:05:06;29.0;27.6;
13030;PMS7003;6582;54.644;9.760;2022-07-01T04:10:01;29.5;27.8;
13030;PMS7003;6582;54.644;9.760;2022-07-01T04:15:01;29.0;27.8;
13030;PMS7003;6582;54.644;9.760;2022-07-01T04:20:11;29.4;27.9;
13030;PMS7003;6582;54.644;9.760;2022-07-01T04:25:03;29.1;27.8;
13030;PMS7003;6582;54.644;9.760;2022-07-01T04:30:02;28.9;27.8;
13030;PMS7003;6582;54.644;9.760;2022-07-01T04:35:01;29.0;28.0;
13030;PMS7003;6582;54.644;9.760;2022-07-01T04:40:02;30.1;28.2;
13030;PMS7003;6582;54.644;9.760;2022-07-01T04:45:01;30.6;27.9;
13030;PMS7003;6582;54.644;9.760;2022-07-01T04:50:01;30.3;27.8;
13030;PMS7003;6582;54.644;9.760;2022-07-01T04:55:03;29.7;27.3;
13030;PMS7003;6582;54.644;9.760;2022-07-01T05:00:02;29.1;26.9;
13030;PMS7003;6582;54.644;9.760;2022-07-01T05:05:01;27.4;25.8;
13030;PMS7003;6582;54.644;9.760;2022-07-01T05:10:02;25.5;24.5;
13030;PMS7003;6582;54.644;9.760;2022-07-01T05:15:01;24.6;23.6;
13030;PMS7003;6582;54.644;9.760;2022-07-01T05:20:08;24.1;22.8;
13030;PMS7003;6582;54.644;9.760;2022-07-01T05:25:01;23.5;22.1;
13030;PMS7003;6582;54.644;9.760;2022-07-01T05:30:06;22.9;21.6;
13030;PMS7003;6582;54.644;9.760;2022-07-01T05:35:01;22.2;21.4;
13030;PMS7003;6582;54.644;9.760;2022-07-01T05:40:01;21.7;20.2;
13030;PMS7003;6582;54.644;9.760;2022-07-01T05:45:01;20.4;19.2;
13030;PMS7003;6582;54.644;9.760;2022-07-01T05:50:01;19.2;17.9;
13030;PMS7003;6582;54.644;9.760;2022-07-01T05:55:02;17.6;16.6;
13030;PMS7003;6582;54.644;9.760;2022-07-01T06:00:02;17.2;16.0;
13030;PMS7003;6582;54.644;9.760;2022-07-01T06:05:02;16.5;15.3;
13030;PMS7003;6582;54.644;9.760;2022-07-01T06:10:01;16.0;14.9;
13030;PMS7003;6582;54.644;9.760;2022-07-01T06:15:02;15.8;14.7;
13030;PMS7003;6582;54.644;9.760;2022-07-01T06:20:02;16.6;14.7;
13030;PMS7003;6582;54.644;9.760;2022-07-01T06:25:01;16.7;15.0;
13030;PMS7003;6582;54.644;9.760;2022-07-01T06:30:01;16.3;15.1;
13030;PMS7003;6582;54.644;9.760;2022-07-01T06:35:03;16.6;15.0;
13030;PMS7003;6582;54.644;9.760;2022-07-01T06:40:04;16.8;14.9;
13030;PMS7003;6582;54.644;9.760;2022-07-01T06:45:02;16.3;15.2;
13030;PMS7003;6582;54.644;9.760;2022-07-01T06:50:05;16.0;14.6;
13030;PMS7003;6582;54.644;9.760;2022-07-01T06:55:07;15.2;14.1;
13030;PMS7003;6582;54.644;9.760;2022-07-01T07:00:07;14.5;13.4;
13030;PMS7003;6582;54.644;9.760;2022-07-01T07:05:04;13.8;13.0;
13030;PMS7003;6582;54.644;9.760;2022-07-01T07:10:01;12.4;11.6;
13030;PMS7003;6582;54.644;9.760;2022-07-01T07:15:01;11.3;10.8;
13030;PMS7003;6582;54.644;9.760;2022-07-01T07:20:02;10.8;10.3;
13030;PMS7003;6582;54.644;9.760;2022-07-01T07:25:02;10.3;9.7;
13030;PMS7003;6582;54.644;9.760;2022-07-01T07:30:02;9.6;8.9;
13030;PMS7003;6582;54.644;9.760;2022-07-01T07:35:12;9.2;8.3;
13030;PMS7003;6582;54.644;9.760;2022-07-01T07:40:04;8.6;7.6;
13030;PMS7003;6582;54.644;9.760;2022-07-01T07:45:03;7.9;6.9;
13030;PMS7003;6582;54.644;9.760;2022-07-01T07:50:01;7.2;6.5;
13030;PMS7003;6582;54.644;9.760;2022-07-01T07:55:07;6.4;6.0;
13030;PMS7003;6582;54.644;9.760;2022-07-01T08:00:08;5.7;5.4;
13030;PMS7003;6582;54.644;9.760;2022-07-01T08:05:01;5.2;4.9;
13030;PMS7003;6582;54.644;9.760;2022-07-01T08:10:08;4.8;4.6;
13030;PMS7003;6582;54.644;9.760;2022-07-01T08:15:01;4.3;4.2;
13030;PMS7003;6582;54.644;9.760;2022-07-01T08:20:07;3.8;3.7;
13030;PMS7003;6582;54.644;9.760;2022-07-01T08:30:01;3.6;3.5;
13030;PMS7003;6582;54.644;9.760;2022-07-01T08:35:01;3.3;3.3;
13030;PMS7003;6582;54.644;9.760;2022-07-01T08:40:06;3.0;2.9;
13030;PMS7003;6582;54.644;9.760;2022-07-01T08:45:01;3.4;2.9;
13030;PMS7003;6582;54.644;9.760;2022-07-01T08:50:01;3.0;2.5;
13030;PMS7003;6582;54.644;9.760;2022-07-01T08:55:01;2.8;2.3;
13030;PMS7003;6582;54.644;9.760;2022-07-01T09:00:03;2.8;2.3;
13030;PMS7003;6582;54.644;9.760;2022-07-01T09:05:06;2.7;2.3;
13030;PMS7003;6582;54.644;9.760;2022-07-01T09:10:11;2.1;2.1;
13030;PMS7003;6582;54.644;9.760;2022-07-01T09:15:16;2.8;2.4;
13030;PMS7003;6582;54.644;9.760;2022-07-01T09:30:02;2.4;2.0;
13030;PMS7003;6582;54.644;9.760;2022-07-01T09:35:01;2.7;2.4;
13030;PMS7003;6582;54.644;9.760;2022-07-01T09:40:02;2.6;2.4;
13030;PMS7003;6582;54.644;9.760;2022-07-01T09:45:05;2.7;2.6;
13030;PMS7003;6582;54.644;9.760;2022-07-01T09:50:03;3.2;2.8;
13030;PMS7003;6582;54.644;9.760;2022-07-01T09:55:02;3.3;3.0;
13030;PMS7003;6582;54.644;9.760;2022-07-01T10:00:03;3.8;3.4;
13030;PMS7003;6582;54.644;9.760;2022-07-01T10:05:02;4.0;3.6;
13030;PMS7003;6582;54.644;9.760;2022-07-01T10:30:12;4.0;4.0;
13030;PMS7003;6582;54.644;9.760;2022-07-01T10:35:03;5.0;4.4;
13030;PMS7003;6582;54.644;9.760;2022-07-01T11:20:02;5.0;3.8;
13030;PMS7003;6582;54.644;9.760;2022-07-01T11:30:04;4.7;3.9;
13030;PMS7003;6582;54.644;9.760;2022-07-01T11:35:02;4.9;4.0;
13030;PMS7003;6582;54.644;9.760;2022-07-01T11:40:08;4.7;4.0;
13030;PMS7003;6582;54.644;9.760;2022-07-01T11:45:02;4.6;4.1;
13030;PMS7003;6582;54.644;9.760;2022-07-01T11:50:01;4.5;4.2;
13030;PMS7003;6582;54.644;9.760;2022-07-01T11:55:18;4.7;4.4;
13030;PMS7003;6582;54.644;9.760;2022-07-01T12:00:10;4.8;4.6;
13030;PMS7003;6582;54.644;9.760;2022-07-01T12:05:02;5.4;4.8;
13030;PMS7003;6582;54.644;9.760;2022-07-01T12:15:01;5.6;5.1;
13030;PMS7003;6582;54.644;9.760;2022-07-01T12:20:01;5.8;5.2;
13030;PMS7003;6582;54.644;9.760;2022-07-01T12:30:02;6.0;5.8;
13030;PMS7003;6582;54.644;9.760;2022-07-01T12:35:04;6.7;6.6;
13030;PMS7003;6582;54.644;9.760;2022-07-01T12:40:04;7.4;7.2;
13030;PMS7003;6582;54.644;9.760;2022-07-01T12:45:04;8.0;7.8;
13030;PMS7003;6582;54.644;9.760;2022-07-01T12:50:08;8.8;8.3;
13030;PMS7003;6582;54.644;9.760;2022-07-01T12:55:12;9.0;8.6;
13030;PMS7003;6582;54.644;9.760;2022-07-01T13:00:07;9.0;8.4;
13030;PMS7003;6582;54.644;9.760;2022-07-01T13:05:01;8.8;8.3;
13030;PMS7003;6582;54.644;9.760;2022-07-01T13:10:02;8.4;7.8;
13030;PMS7003;6582;54.644;9.760;2022-07-01T13:15:02;8.5;7.6;
13030;PMS7003;6582;54.644;9.760;2022-07-01T13:20:02;8.3;7.4;
13030;PMS7003;6582;54.644;9.760;2022-07-01T13:25:08;8.5;7.5;
13030;PMS7003;6582;54.644;9.760;2022-07-01T13:30:07;8.1;7.1;
13030;PMS7003;6582;54.644;9.760;2022-07-01T13:35:02;7.9;7.0;
13030;PMS7003;6582;54.644;9.760;2022-07-01T13:40:07;6.9;6.3;
13030;PMS7003;6582;54.644;9.760;2022-07-01T13:45:02;6.5;5.9;
13030;PMS7003;6582;54.644;9.760;2022-07-01T13:50:02;5.2;4.8;
13030;PMS7003;6582;54.644;9.760;2022-07-01T13:55:02;5.0;4.6;
13030;PMS7003;6582;54.644;9.760;2022-07-01T14:00:02;5.3;4.5;
13030;PMS7003;6582;54.644;9.760;2022-07-01T14:05:01;4.9;4.3;
13030;PMS7003;6582;54.644;9.760;2022-07-01T14:10:02;4.4;3.9;
13030;PMS7003;6582;54.644;9.760;2022-07-01T14:15:02;4.8;4.3;
13030;PMS7003;6582;54.644;9.760;2022-07-01T14:20:02;5.7;4.7;
13030;PMS7003;6582;54.644;9.760;2022-07-01T14:30:02;5.8;5.2;
13030;PMS7003;6582;54.644;9.760;2022-07-01T14:35:01;6.6;5.9;
13030;PMS7003;6582;54.644;9.760;2022-07-01T14:45:01;7.2;6.5;
13030;PMS7003;6582;54.644;9.760;2022-07-01T14:50:02;7.6;6.5;
13030;PMS7003;6582;54.644;9.760;2022-07-01T14:55:01;6.7;6.1;
13030;PMS7003;6582;54.644;9.760;2022-07-01T15:00:03;6.1;5.6;
13030;PMS7003;6582;54.644;9.760;2022-07-01T15:05:01;6.2;5.8;
13030;PMS7003;6582;54.644;9.760;2022-07-01T15:10:01;5.8;5.4;
13030;PMS7003;6582;54.644;9.760;2022-07-01T15:15:01;5.0;5.0;
13030;PMS7003;6582;54.644;9.760;2022-07-01T15:20:01;4.5;4.5;
13030;PMS7003;6582;54.644;9.760;2022-07-01T15:25:06;4.2;4.0;
13030;PMS7003;6582;54.644;9.760;2022-07-01T15:30:02;3.7;3.5;
13030;PMS7003;6582;54.644;9.760;2022-07-01T15:35:01;3.8;3.6;
13030;PMS7003;6582;54.644;9.760;2022-07-01T15:40:05;4.0;3.8;
13030;PMS7003;6582;54.644;9.760;2022-07-01T15:45:01;4.1;3.9;
13030;PMS7003;6582;54.644;9.760;2022-07-01T15:50:01;4.9;4.6;
13030;PMS7003;6582;54.644;9.760;2022-07-01T15:55:01;4.7;4.4;
13030;PMS7003;6582;54.644;9.760;2022-07-01T16:00:01;4.4;4.1;
13030;PMS7003;6582;54.644;9.760;2022-07-01T16:10:03;4.7;4.4;
13030;PMS7003;6582;54.644;9.760;2022-07-01T16:20:03;4.5;3.9;
13030;PMS7003;6582;54.644;9.760;2022-07-01T16:30:02;5.1;4.2;
13030;PMS7003;6582;54.644;9.760;2022-07-01T16:35:01;5.4;4.5;
13030;PMS7003;6582;54.644;9.760;2022-07-01T16:40:03;5.2;4.4;
13030;PMS7003;6582;54.644;9.760;2022-07-01T16:45:03;4.9;4.7;
13030;PMS7003;6582;54.644;9.760;2022-07-01T16:50:03;4.8;4.6;
13030;PMS7003;6582;54.644;9.760;2022-07-01T16:55:02;4.2;4.2;
13030;PMS7003;6582;54.644;9.760;2022-07-01T17:00:03;4.5;4.1;
13030;PMS7003;6582;54.644;9.760;2022-07-01T17:05:02;4.1;3.7;
13030;PMS7003;6582;54.644;9.760;2022-07-01T17:10:02;3.6;3.2;
13030;PMS7003;6582;54.644;9.760;2022-07-01T17:15:07;4.0;3.2;
13030;PMS7003;6582;54.644;9.760;2022-07-01T17:30:04;3.2;2.8;
13030;PMS7003;6582;54.644;9.760;2022-07-01T17:35:07;3.4;3.0;
13030;PMS7003;6582;54.644;9.760;2022-07-01T17:40:02;3.8;3.4;
13030;PMS7003;6582;54.644;9.760;2022-07-01T17:45:02;4.1;4.1;
13030;PMS7003;6582;54.644;9.760;2022-07-01T17:50:07;4.2;4.1;
13030;PMS7003;6582;54.644;9.760;2022-07-01T17:55:01;4.6;4.5;
13030;PMS7003;6582;54.644;9.760;2022-07-01T18:00:02;4.8;4.6;
13030;PMS7003;6582;54.644;9.760;2022-07-01T18:05:01;4.6;4.5;
13030;PMS7003;6582;54.644;9.760;2022-07-01T18:10:02;4.9;4.6;
13030;PMS7003;6582;54.644;9.760;2022-07-01T18:15:04;5.6;5.2;
13030;PMS7003;6582;54.644;9.760;2022-07-01T18:20:06;6.0;5.6;
13030;PMS7003;6582;54.644;9.760;2022-07-01T18:25:06;6.4;6.0;
13030;PMS7003;6582;54.644;9.760;2022-07-01T18:30:03;6.8;6.4;
13030;PMS7003;6582;54.644;9.760;2022-07-01T18:35:02;6.6;6.3;
13030;PMS7003;6582;54.644;9.760;2022-07-01T18:40:02;6.7;6.4;
13030;PMS7003;6582;54.644;9.760;2022-07-01T18:45:02;6.8;6.5;
13030;PMS7003;6582;54.644;9.760;2022-07-01T18:50:07;6.9;6.4;
13030;PMS7003;6582;54.644;9.760;2022-07-01T18:55:01;6.7;6.1;
13030;PMS7003;6582;54.644;9.760;2022-07-01T19:00:06;6.1;5.5;
13030;PMS7003;6582;54.644;9.760;2022-07-01T19:05:07;5.7;5.0;
13030;PMS7003;6582;54.644;9.760;2022-07-01T19:10:03;5.3;4.7;
13030;PMS7003;6582;54.644;9.760;2022-07-01T19:15:07;5.6;5.0;
13030;PMS7003;6582;54.644;9.760;2022-07-01T19:20:02;6.0;5.3;
13030;PMS7003;6582;54.644;9.760;2022-07-01T19:25:06;6.4;5.8;
13030;PMS7003;6582;54.644;9.760;2022-07-01T19:30:02;6.3;5.9;
13030;PMS7003;6582;54.644;9.760;2022-07-01T19:35:06;6.4;6.0;
13030;PMS7003;6582;54.644;9.760;2022-07-01T19:45:07;6.0;5.8;
13030;PMS7003;6582;54.644;9.760;2022-07-01T19:50:01;5.4;5.2;
13030;PMS7003;6582;54.644;9.760;2022-07-01T19:55:02;4.6;4.4;
13030;PMS7003;6582;54.644;9.760;2022-07-01T20:00:02;4.0;3.8;
13030;PMS7003;6582;54.644;9.760;2022-07-01T20:05:02;3.3;3.1;
13030;PMS7003;6582;54.644;9.760;2022-07-01T20:10:02;3.0;2.7;
13030;PMS7003;6582;54.644;9.760;2022-07-01T20:20:02;2.8;2.5;
13030;PMS7003;6582;54.644;9.760;2022-07-01T20:25:06;3.5;3.1;
13030;PMS7003;6582;54.644;9.760;2022-07-01T20:30:02;3.8;3.5;
13030;PMS7003;6582;54.644;9.760;2022-07-01T20:35:01;4.1;3.7;
13030;PMS7003;6582;54.644;9.760;2022-07-01T20:40:02;3.9;3.8;
13030;PMS7003;6582;54.644;9.760;2022-07-01T20:45:01;4.2;4.2;
13030;PMS7003;6582;54.644;9.760;2022-07-01T20:55:01;3.6;3.6;
13030;PMS7003;6582;54.644;9.760;2022-07-01T21:00:01;3.6;3.6;
13030;PMS7003;6582;54.644;9.760;2022-07-01T21:05:02;3.9;3.9;
13030;PMS7003;6582;54.644;9.760;2022-07-01T21:10:02;4.0;4.0;
13030;PMS7003;6582;54.644;9.760;2022-07-01T21:15:02;3.5;3.5;
13030;PMS7003;6582;54.644;9.760;2022-07-01T21:20:01;3.6;3.6;
13030;PMS7003;6582;54.644;9.760;2022-07-01T21:25:01;3.4;3.4;
13030;PMS7003;6582;54.644;9.760;2022-07-01T21:30:02;3.0;3.0;
13030;PMS7003;6582;54.644;9.760;2022-07-01T21:45:02;3.0;3.0;
13030;PMS7003;6582;54.644;9.760;2022-07-01T21:55:03;3.2;3.2;
13030;PMS7003;6582;54.644;9.760;2022-07-01T22:00:11;3.4;3.4;
13030;PMS7003;6582;54.644;9.760;2022-07-01T22:05:09;3.6;3.2;
13030;PMS7003;6582;54.644;9.760;2022-07-01T22:10:02;3.8;3.4;
13030;PMS7003;6582;54.644;9.760;2022-07-01T22:15:05;3.8;3.4;
13030;PMS7003;6582;54.644;9.760;2022-07-01T22:20:07;4.1;3.6;
13030;PMS7003;6582;54.644;9.760;2022-07-01T22:25:03;4.0;3.6;
13030;PMS7003;6582;54.644;9.760;2022-07-01T22:30:03;4.2;4.0;
13030;PMS7003;6582;54.644;9.760;2022-07-01T22:35:01;4.3;4.1;
13030;PMS7003;6582;54.644;9.760;2022-07-01T22:40:02;4.8;4.6;
13030;PMS7003;6582;54.644;9.760;2022-07-01T22:45:05;4.9;4.4;
13030;PMS7003;6582;54.644;9.760;2022-07-01T22:50:09;5.3;4.6;
13030;PMS7003;6582;54.644;9.760;2022-07-01T22:55:09;5.4;4.8;
13030;PMS7003;6582;54.644;9.760;2022-07-01T23:05:03;5.8;5.2;
13030;PMS7003;6582;54.644;9.760;2022-07-01T23:10:03;6.2;5.6;
13030;PMS7003;6582;54.644;9.760;2022-07-01T23:15:01;5.8;5.6;
13030;PMS7003;6582;54.644;9.760;2022-07-01T23:20:02;6.0;6.0;
13030;PMS7003;6582;54.644;9.760;2022-07-01T23:25:01;6.2;6.2;
13030;PMS7003;6582;54.644;9.760;2022-07-01T23:30:03;6.0;6.0;
13030;PMS7003;6582;54.644;9.760;2022-07-01T23:40:02;6.9;6.7;
13030;PMS7003;6582;54.644;9.760;2022-07-01T23:45:01;6.6;6.3;
13030;PMS7003;6582;54.644;9.760;2022-07-01T23:50:01;6.7;6.4;
13030;PMS7003;6582;54.644;9.760;2022-07-01T23:55:01;7.3;6.8;
